Time;durP1;ratioP1;P1;durP2;ratioP2;P2;SDS_P1;SDS_P2;PMS_P1;PMS_P2;Temp;Humidity;BMP_temperature;BMP_pressure;BME280_temperature;BME280_humidity;BME280_pressure;Samples;Min_cycle;Max_cycle;Signal;HPM_P1;HPM_P2
2022/12/14 00:00:47;;;;;;;100.55;46.67;;;-7.30;99.90;;;;;;2602967;54;20057;31
2022/12/14 00:03:21;;;;;;;120.90;57.53;;;-7.30;99.90;;;;;;2603340;54;20093;31
2022/12/14 00:05:55;;;;;;;109.47;50.75;;;-7.40;99.90;;;;;;2603418;54;20068;31
2022/12/14 00:08:29;;;;;;;98.45;44.45;;;-7.50;99.90;;;;;;2603323;54;20050;31
2022/12/14 00:11:13;;;;;;;102.55;45.60;;;-7.50;99.90;;;;;;2603261;54;20046;31
2022/12/14 00:13:47;;;;;;;112.13;47.70;;;-7.50;99.90;;;;;;2603115;54;20056;31
2022/12/14 00:16:22;;;;;;;107.70;45.60;;;-7.50;99.90;;;;;;2603344;54;20042;31
2022/12/14 00:18:56;;;;;;;103.88;47.38;;;-7.60;99.90;;;;;;2603133;54;20932;31
2022/12/14 00:21:30;;;;;;;107.50;46.40;;;-7.60;99.90;;;;;;2603234;54;20050;31
2022/12/14 00:24:06;;;;;;;103.47;47.22;;;-7.60;99.90;;;;;;2603049;54;20094;31
2022/12/14 00:26:43;;;;;;;112.07;47.25;;;-7.60;99.90;;;;;;2603021;54;20089;31
2022/12/14 00:29:16;;;;;;;104.10;43.60;;;-7.60;99.90;;;;;;2701688;39;22298;31
2022/12/14 00:31:51;;;;;;;94.45;45.75;;;-7.70;99.90;;;;;;2603010;54;20095;31
2022/12/14 00:34:25;;;;;;;109.35;47.28;;;-7.70;99.90;;;;;;2603421;54;20058;31
2022/12/14 00:37:00;;;;;;;106.22;45.80;;;-7.70;99.90;;;;;;2603082;54;20879;31
2022/12/14 00:39:33;;;;;;;98.30;46.35;;;-7.80;99.90;;;;;;2603082;54;20031;31
2022/12/14 00:42:10;;;;;;;95.90;43.33;;;-7.90;99.90;;;;;;2603117;54;20022;31
2022/12/14 00:44:45;;;;;;;102.72;43.17;;;-7.90;99.90;;;;;;2603134;54;20145;31
2022/12/14 00:47:20;;;;;;;99.17;45.07;;;-7.90;99.90;;;;;;2603132;54;20049;31
2022/12/14 00:49:54;;;;;;;96.65;41.05;;;-8.00;99.90;;;;;;2602950;54;20801;31
2022/12/14 00:52:27;;;;;;;96.43;43.38;;;-8.00;99.90;;;;;;2602840;54;20037;31
2022/12/14 00:55:03;;;;;;;91.13;41.67;;;-8.10;99.90;;;;;;2603122;54;20847;31
2022/12/14 00:57:40;;;;;;;;;;;-8.20;99.90;;;;;;2603308;54;20048;31
2022/12/14 01:00:17;;;;;;;96.97;42.75;;;-8.20;99.90;;;;;;2603164;54;19934;31
2022/12/14 01:02:52;;;;;;;97.43;42.95;;;-8.20;99.90;;;;;;2602976;54;21344;31
2022/12/14 01:05:27;;;;;;;97.38;43.72;;;-8.30;99.90;;;;;;2602879;54;20026;31
2022/12/14 01:08:01;;;;;;;98.75;43.03;;;-8.30;99.90;;;;;;2602853;54;20920;31
2022/12/14 01:10:35;;;;;;;101.95;45.00;;;-8.40;99.90;;;;;;2602958;54;20036;31
2022/12/14 01:13:12;;;;;;;108.45;43.95;;;-8.40;99.90;;;;;;2603751;54;20862;31
2022/12/14 01:15:47;;;;;;;114.72;44.50;;;-8.40;99.90;;;;;;2603817;54;20810;31
2022/12/14 01:18:21;;;;;;;95.60;43.00;;;-8.50;99.90;;;;;;2603330;54;20027;31
2022/12/14 01:20:57;;;;;;;96.57;43.27;;;-8.50;99.90;;;;;;2603847;54;20915;31
2022/12/14 01:23:32;;;;;;;99.03;41.92;;;-8.50;99.90;;;;;;2603764;54;20901;31
2022/12/14 01:26:05;;;;;;;97.28;41.40;;;-8.60;99.90;;;;;;2603723;54;20821;31
2022/12/14 01:28:42;;;;;;;103.97;43.13;;;-8.60;99.90;;;;;;2603926;54;20070;31
2022/12/14 01:31:18;;;;;;;94.85;41.60;;;-8.60;99.90;;;;;;2603768;54;20022;31
2022/12/14 01:33:52;;;;;;;100.55;41.10;;;-8.60;99.90;;;;;;2603822;54;20027;31
2022/12/14 01:36:27;;;;;;;97.75;43.03;;;-8.70;99.90;;;;;;2603941;54;20081;31
2022/12/14 01:39:02;;;;;;;84.40;39.50;;;-8.70;99.90;;;;;;2603864;54;20854;31
2022/12/14 01:41:38;;;;;;;100.07;41.70;;;-8.70;99.90;;;;;;2603764;54;20049;31
2022/12/14 01:44:43;;;;;;;95.93;42.15;;;-8.70;99.90;;;;;;2603826;54;20026;31
2022/12/14 01:47:21;;;;;;;94.65;40.45;;;-8.80;99.90;;;;;;2621861;46;20098;31
2022/12/14 01:49:58;;;;;;;94.70;42.70;;;-8.80;99.90;;;;;;2603746;54;20088;31
2022/12/14 01:52:36;;;;;;;95.95;40.58;;;-8.80;99.90;;;;;;2603937;54;20914;31
2022/12/14 01:55:11;;;;;;;96.85;42.85;;;-8.80;99.90;;;;;;2603524;54;20939;31
2022/12/14 01:57:48;;;;;;;102.35;45.85;;;-8.80;99.90;;;;;;2603603;54;19941;31
2022/12/14 02:00:23;;;;;;;95.80;42.47;;;-8.80;99.90;;;;;;2603487;54;19934;31
2022/12/14 02:03:02;;;;;;;94.63;42.10;;;-8.90;99.90;;;;;;2603892;54;20034;31
2022/12/14 02:05:36;;;;;;;101.35;42.25;;;-8.80;99.90;;;;;;2603482;54;20964;31
2022/12/14 02:08:10;;;;;;;98.70;43.47;;;-8.90;99.90;;;;;;2603664;54;20925;31
2022/12/14 02:10:45;;;;;;;92.18;41.58;;;-8.90;99.90;;;;;;2603577;54;20836;31
2022/12/14 02:13:20;;;;;;;96.70;41.83;;;-9.00;99.90;;;;;;2603531;54;20908;31
2022/12/14 02:18:29;;;;;;;95.60;43.10;;;-9.00;99.90;;;;;;2603575;54;20022;31
2022/12/14 02:21:20;;;;;;;93.93;42.95;;;-9.00;99.90;;;;;;2603720;54;20042;31
2022/12/14 02:24:32;;;;;;;101.73;43.13;;;-9.00;99.90;;;;;;2603354;54;20878;31
2022/12/14 02:27:15;;;;;;;98.00;43.25;;;-9.00;99.90;;;;;;2603522;54;20051;31
2022/12/14 02:29:49;;;;;;;99.50;43.05;;;-9.00;99.90;;;;;;2603496;54;20920;31
2022/12/14 02:32:35;;;;;;;94.33;42.47;;;-9.00;99.90;;;;;;2603453;54;20089;31
2022/12/14 02:35:12;;;;;;;90.55;41.20;;;-9.10;99.90;;;;;;2621910;46;20037;31
2022/12/14 02:37:50;;;;;;;97.82;41.78;;;-9.10;99.90;;;;;;2621995;46;19935;31
2022/12/14 02:40:27;;;;;;;98.15;43.20;;;-9.10;99.90;;;;;;2603351;54;20053;31
2022/12/14 02:43:07;;;;;;;91.25;41.30;;;-9.20;99.90;;;;;;2603442;54;20804;31
2022/12/14 02:45:43;;;;;;;98.40;41.83;;;-9.20;99.90;;;;;;2603601;54;20816;31
2022/12/14 02:48:20;;;;;;;97.75;45.25;;;-9.30;99.90;;;;;;2603509;54;19941;31
2022/12/14 02:50:57;;;;;;;94.68;40.50;;;-9.30;99.90;;;;;;2603276;54;20033;31
2022/12/14 02:53:34;;;;;;;93.88;40.78;;;-9.30;99.90;;;;;;2603537;54;20034;31
2022/12/14 02:56:10;;;;;;;93.30;39.85;;;-9.40;99.90;;;;;;2603342;54;20151;31
2022/12/14 02:58:45;;;;;;;96.67;41.37;;;-9.40;99.90;;;;;;2603617;54;20817;31
2022/12/14 03:01:22;;;;;;;81.55;36.25;;;-9.40;99.90;;;;;;2603546;54;20053;31
2022/12/14 03:03:59;;;;;;;96.88;40.08;;;-9.50;99.90;;;;;;2603402;54;20093;31
2022/12/14 03:06:34;;;;;;;90.30;39.90;;;-9.50;99.90;;;;;;2603191;54;20057;31
2022/12/14 03:09:06;;;;;;;94.75;41.05;;;-9.50;99.90;;;;;;2603274;54;22365;31
2022/12/14 03:11:43;;;;;;;87.70;39.63;;;-9.50;99.90;;;;;;2603479;54;20052;31
2022/12/14 03:14:20;;;;;;;86.53;39.08;;;-9.60;99.90;;;;;;2603190;54;20912;31
2022/12/14 03:16:56;;;;;;;93.80;38.45;;;-9.60;99.90;;;;;;2603203;54;20037;31
2022/12/14 03:19:35;;;;;;;85.90;36.70;;;-9.70;99.90;;;;;;2621795;46;20116;31
2022/12/14 03:22:12;;;;;;;99.80;42.00;;;-9.70;99.90;;;;;;2603382;54;20033;31
2022/12/14 03:24:48;;;;;;;91.10;38.70;;;-9.70;99.90;;;;;;2603257;54;20895;31
2022/12/14 03:27:24;;;;;;;92.03;38.63;;;-9.70;99.90;;;;;;2614268;31;21189;31
2022/12/14 03:30:00;;;;;;;89.88;38.55;;;-9.80;99.90;;;;;;2603367;54;20868;31
2022/12/14 03:32:35;;;;;;;93.60;38.90;;;-9.80;99.90;;;;;;2603324;54;20049;31
2022/12/14 03:35:14;;;;;;;79.13;38.10;;;-9.80;99.90;;;;;;2602900;54;20026;31
2022/12/14 03:37:50;;;;;;;84.15;38.75;;;-9.80;99.90;;;;;;2603169;54;20042;31
2022/12/14 03:40:26;;;;;;;102.35;44.50;;;-9.80;99.90;;;;;;2603204;54;22416;31
2022/12/14 03:43:01;;;;;;;88.07;39.40;;;-9.80;99.90;;;;;;2603440;54;20089;31
2022/12/14 03:45:38;;;;;;;93.22;41.30;;;-9.80;99.90;;;;;;2603240;54;20034;31
2022/12/14 03:48:16;;;;;;;92.43;41.05;;;-9.80;99.90;;;;;;2603065;54;20026;31
2022/12/14 03:50:54;;;;;;;94.15;41.70;;;-9.80;99.90;;;;;;2603085;54;20034;31
2022/12/14 03:53:31;;;;;;;95.47;42.00;;;-9.80;99.90;;;;;;2603388;54;20946;31
2022/12/14 03:56:07;;;;;;;96.80;41.07;;;-9.80;99.90;;;;;;2603426;54;20900;31
2022/12/14 03:58:46;;;;;;;83.05;38.10;;;-9.80;99.90;;;;;;2603233;54;20371;31
2022/12/14 04:01:30;;;;;;;88.63;39.42;;;-9.80;99.90;;;;;;2603197;54;20053;31
2022/12/14 04:04:07;;;;;;;90.25;39.72;;;-9.80;99.90;;;;;;2603315;54;20096;31
2022/12/14 04:06:47;;;;;;;89.90;39.78;;;-9.80;99.90;;;;;;2603333;54;20053;31
2022/12/14 04:09:29;;;;;;;88.93;40.78;;;-9.80;99.90;;;;;;2602955;54;20034;31
2022/12/14 04:20:28;;;;;;;;;;;-9.80;99.90;;;;;;2603498;54;20026;31
2022/12/14 04:23:11;;;;;;;90.13;38.65;;;-9.90;99.90;;;;;;2603006;54;20798;31
2022/12/14 04:31:22;;;;;;;96.18;40.38;;;-9.90;99.90;;;;;;2602860;54;20048;31
2022/12/14 04:33:57;;;;;;;100.50;41.73;;;-9.90;99.90;;;;;;2603375;54;20909;31
2022/12/14 04:36:33;;;;;;;105.07;44.73;;;-9.90;99.90;;;;;;2603067;54;20277;31
2022/12/14 04:39:13;;;;;;;102.57;43.22;;;-9.90;99.90;;;;;;2603077;54;20153;31
2022/12/14 04:41:49;;;;;;;96.95;42.45;;;-9.90;99.90;;;;;;2602866;54;20149;31
2022/12/14 04:44:24;;;;;;;129.60;54.25;;;-9.90;99.90;;;;;;2602354;54;20931;31
2022/12/14 04:46:58;;;;;;;125.20;59.03;;;-9.90;99.90;;;;;;2602905;54;20120;31
2022/12/14 04:49:35;;;;;;;122.03;54.72;;;-9.90;99.90;;;;;;2603205;54;20053;31
2022/12/14 04:52:12;;;;;;;97.78;40.97;;;-10.00;99.90;;;;;;2602918;54;20022;31
2022/12/14 04:54:51;;;;;;;88.35;39.45;;;-10.00;99.90;;;;;;2603050;54;20045;31
2022/12/14 04:57:28;;;;;;;88.55;39.83;;;-10.00;99.90;;;;;;2603129;54;20855;31
2022/12/14 05:00:04;;;;;;;92.90;41.10;;;-10.00;99.90;;;;;;2603034;54;20851;31
2022/12/14 05:02:41;;;;;;;82.20;37.50;;;-10.00;99.90;;;;;;2791172;31;22503;31
2022/12/14 05:05:17;;;;;;;89.10;37.40;;;-10.00;99.90;;;;;;2602905;54;20027;31
2022/12/14 05:07:54;;;;;;;94.72;42.00;;;-10.00;99.90;;;;;;2603111;54;20042;31
2022/12/14 05:10:36;;;;;;;93.60;41.22;;;-10.00;99.90;;;;;;2603067;54;20081;31
2022/12/14 05:13:13;;;;;;;101.47;46.28;;;-10.00;99.90;;;;;;2603132;54;20026;31
2022/12/14 05:15:50;;;;;;;102.00;44.55;;;-10.00;99.90;;;;;;2602890;54;20026;31
2022/12/14 05:18:24;;;;;;;98.70;43.65;;;-10.00;99.90;;;;;;2602668;54;20096;31
2022/12/14 05:20:59;;;;;;;100.90;45.15;;;-10.00;99.90;;;;;;2602867;54;20851;31
2022/12/14 05:23:32;;;;;;;106.85;45.45;;;-10.00;99.90;;;;;;2701470;39;22411;31
2022/12/14 05:26:10;;;;;;;112.83;48.13;;;-10.00;99.90;;;;;;2602788;54;21253;31
2022/12/14 05:28:45;;;;;;;113.70;48.38;;;-10.00;99.90;;;;;;2602819;54;20246;31
2022/12/14 05:31:24;;;;;;;106.95;46.28;;;-10.00;99.90;;;;;;2602624;54;20022;31
2022/12/14 05:33:57;;;;;;;106.07;46.28;;;-10.00;99.90;;;;;;2602903;54;20089;31
2022/12/14 05:36:31;;;;;;;107.97;46.08;;;-10.00;99.90;;;;;;2602672;54;20959;31
2022/12/14 05:39:06;;;;;;;98.00;42.95;;;-10.00;99.90;;;;;;2602851;54;20026;31
2022/12/14 05:41:44;;;;;;;90.65;38.65;;;-10.00;99.90;;;;;;2603099;54;20904;31
2022/12/14 05:44:23;;;;;;;115.45;47.70;;;-10.00;99.90;;;;;;2602484;54;20272;31
2022/12/14 05:46:57;;;;;;;95.50;41.88;;;-9.90;99.90;;;;;;2602811;54;20030;31
2022/12/14 05:49:31;;;;;;;103.97;44.53;;;-9.90;99.90;;;;;;2602713;54;20883;31
2022/12/14 05:52:07;;;;;;;136.83;50.67;;;-9.90;99.90;;;;;;2602757;54;20056;31
2022/12/14 05:54:42;;;;;;;143.27;55.08;;;-9.90;99.90;;;;;;2602722;54;20026;31
2022/12/14 05:57:19;;;;;;;268.33;75.57;;;-10.00;99.90;;;;;;2602648;54;20030;31
2022/12/14 05:59:54;;;;;;;355.07;86.40;;;-10.00;99.90;;;;;;2603603;54;19935;31
2022/12/14 06:02:31;;;;;;;391.30;101.43;;;-10.00;99.90;;;;;;2603530;54;20902;31
2022/12/14 06:07:37;;;;;;;377.08;142.32;;;-10.00;99.90;;;;;;2603624;54;20026;31
2022/12/14 06:10:12;;;;;;;205.65;92.15;;;-10.00;99.90;;;;;;2603339;54;20820;31
2022/12/14 06:12:49;;;;;;;201.77;90.37;;;-10.00;99.90;;;;;;2603345;54;20038;31
2022/12/14 06:15:24;;;;;;;145.77;72.13;;;-10.00;99.90;;;;;;2603655;54;21220;31
2022/12/14 06:18:03;;;;;;;513.83;188.38;;;-10.00;99.90;;;;;;2702007;39;22451;31
2022/12/14 06:20:37;;;;;;;261.20;111.33;;;-10.10;99.90;;;;;;2622232;46;20877;31
2022/12/14 06:23:12;;;;;;;126.07;53.42;;;-10.10;99.90;;;;;;2603556;54;20235;31
2022/12/14 06:25:54;;;;;;;114.32;49.15;;;-10.00;99.90;;;;;;2702058;39;22406;31
2022/12/14 06:28:30;;;;;;;115.82;49.58;;;-10.00;99.90;;;;;;2603200;54;20034;31
2022/12/14 06:31:05;;;;;;;109.45;44.58;;;-10.10;99.90;;;;;;2603554;54;20853;31
2022/12/14 06:33:39;;;;;;;112.95;46.55;;;-10.00;99.90;;;;;;2603560;54;20049;31
2022/12/14 06:36:22;;;;;;;108.85;45.92;;;-10.00;99.90;;;;;;2603336;54;20117;31
2022/12/14 06:38:57;;;;;;;105.90;45.45;;;-10.00;99.90;;;;;;2603488;54;20034;31
2022/12/14 06:41:31;;;;;;;114.07;50.15;;;-10.00;99.90;;;;;;2603492;54;20051;31
2022/12/14 06:44:09;;;;;;;133.17;55.73;;;-10.00;99.90;;;;;;2603364;54;20810;31
2022/12/14 06:46:42;;;;;;;172.53;67.80;;;-10.00;99.90;;;;;;2609851;39;22608;31
2022/12/14 06:49:17;;;;;;;144.68;59.85;;;-10.10;99.90;;;;;;2603492;54;21210;31
2022/12/14 06:51:52;;;;;;;163.70;65.93;;;-10.10;99.90;;;;;;2603413;54;20034;31
2022/12/14 06:54:27;;;;;;;133.60;59.55;;;-10.10;99.90;;;;;;2603313;54;20945;31
2022/12/14 06:57:02;;;;;;;125.65;56.25;;;-10.10;99.90;;;;;;2603230;54;20643;31
2022/12/14 06:59:39;;;;;;;177.75;75.80;;;-10.10;99.90;;;;;;2603344;54;20034;31
2022/12/14 07:02:14;;;;;;;206.30;92.45;;;-10.10;99.90;;;;;;2603284;54;21594;31
2022/12/14 07:04:49;;;;;;;147.88;66.15;;;-10.10;99.90;;;;;;2603114;54;20561;31
2022/12/14 07:07:24;;;;;;;133.83;60.07;;;-10.10;99.90;;;;;;2603076;54;20841;31
2022/12/14 07:09:58;;;;;;;120.75;54.40;;;-10.10;99.90;;;;;;2602850;54;21603;31
2022/12/14 07:12:30;;;;;;;114.25;50.50;;;-10.00;99.90;;;;;;2701959;39;22449;31
2022/12/14 07:15:09;;;;;;;106.93;44.22;;;-10.00;99.90;;;;;;2603613;54;19978;31
2022/12/14 07:17:44;;;;;;;100.22;45.60;;;-10.00;99.90;;;;;;2603326;54;20099;31
2022/12/14 07:20:19;;;;;;;103.13;45.25;;;-10.00;99.90;;;;;;2701735;39;21526;31
2022/12/14 07:22:54;;;;;;;113.45;46.10;;;-10.00;99.90;;;;;;2603539;54;20097;31
2022/12/14 07:25:27;;;;;;;113.60;47.60;;;-9.90;99.90;;;;;;2701881;39;21190;31
2022/12/14 07:28:02;;;;;;;113.47;49.10;;;-9.90;99.90;;;;;;2603011;54;20311;31
2022/12/14 07:30:38;;;;;;;109.73;48.33;;;-9.80;99.90;;;;;;2603460;54;20908;31
2022/12/14 07:33:13;;;;;;;121.97;49.67;;;-9.70;99.90;;;;;;2603307;54;21132;31
2022/12/14 07:35:48;;;;;;;132.27;53.17;;;-9.60;99.90;;;;;;2603316;54;20143;31
2022/12/14 07:38:23;;;;;;;147.38;58.65;;;-9.60;99.90;;;;;;2603412;54;19953;31
2022/12/14 07:41:04;;;;;;;191.02;63.88;;;-9.60;99.90;;;;;;2603152;54;20022;31
2022/12/14 07:43:41;;;;;;;478.55;173.95;;;-9.50;99.90;;;;;;2621614;46;20026;31
2022/12/14 07:46:19;;;;;;;208.55;84.07;;;-9.50;99.90;;;;;;2603225;54;20134;31
2022/12/14 07:48:56;;;;;;;160.50;70.93;;;-9.40;99.90;;;;;;2603386;54;20969;31
2022/12/14 07:51:32;;;;;;;119.03;50.50;;;-9.30;99.90;;;;;;2603313;54;20811;31
2022/12/14 07:54:08;;;;;;;116.93;48.95;;;-9.10;99.90;;;;;;2603064;54;20413;31
2022/12/14 07:56:43;;;;;;;132.70;55.70;;;-9.00;99.90;;;;;;2603144;54;20033;31
2022/12/14 07:59:19;;;;;;;132.83;55.53;;;-8.90;99.90;;;;;;2603259;54;20826;31
2022/12/14 08:01:57;;;;;;;108.17;47.83;;;-8.90;99.90;;;;;;2603442;54;20341;31
2022/12/14 08:04:32;;;;;;;108.97;48.40;;;-8.90;99.90;;;;;;2603261;54;20022;31
2022/12/14 08:07:08;;;;;;;112.63;45.60;;;-8.80;99.90;;;;;;2603338;54;20109;31
2022/12/14 08:09:43;;;;;;;100.10;47.45;;;-8.70;99.90;;;;;;2603036;54;20271;31
2022/12/14 08:12:18;;;;;;;106.90;48.03;;;-8.60;99.90;;;;;;2621770;46;20032;31
2022/12/14 08:14:56;;;;;;;108.53;46.45;;;-8.50;99.90;;;;;;2603163;54;20026;31
2022/12/14 08:17:34;;;;;;;106.13;47.75;;;-8.40;99.90;;;;;;2603149;54;20843;31
2022/12/14 08:20:09;;;;;;;107.90;46.45;;;-8.20;99.90;;;;;;2603165;54;20176;31
2022/12/14 08:22:44;;;;;;;;;;;-8.00;99.90;;;;;;2603321;54;20052;31
2022/12/14 08:25:18;;;;;;;107.95;45.13;;;-7.50;99.90;;;;;;2621971;46;20846;31
2022/12/14 08:27:55;;;;;;;103.33;47.63;;;-7.20;99.90;;;;;;2603092;54;20050;31
2022/12/14 08:30:32;;;;;;;106.43;46.60;;;-6.70;99.90;;;;;;2603247;54;20081;31
2022/12/14 08:33:10;;;;;;;104.22;47.55;;;-6.40;99.90;;;;;;2603005;54;20026;31
2022/12/14 08:35:45;;;;;;;106.80;48.87;;;-6.20;99.90;;;;;;2602997;54;20857;31
2022/12/14 08:38:20;;;;;;;108.53;51.80;;;-6.10;99.90;;;;;;2603336;54;20072;31
2022/12/14 08:40:56;;;;;;;102.30;48.88;;;-6.10;99.90;;;;;;2603204;54;21050;31
2022/12/14 08:43:36;;;;;;;109.07;49.20;;;-6.00;99.90;;;;;;2603146;54;20037;31
2022/12/14 08:46:12;;;;;;;108.55;49.70;;;-5.90;99.90;;;;;;2602694;54;20030;31
2022/12/14 08:48:51;;;;;;;108.40;51.50;;;-6.00;99.90;;;;;;2603266;54;20018;31
2022/12/14 08:51:24;;;;;;;128.65;56.33;;;-6.00;99.90;;;;;;2609331;39;22361;31
2022/12/14 08:54:00;;;;;;;126.28;56.13;;;-6.00;99.90;;;;;;2603108;54;20030;31
2022/12/14 08:56:35;;;;;;;114.23;52.80;;;-6.10;99.90;;;;;;2603203;54;20910;31
2022/12/14 08:59:09;;;;;;;107.35;48.53;;;-6.00;99.90;;;;;;2602987;54;20871;31
2022/12/14 09:02:06;;;;;;;118.10;53.70;;;-6.10;99.90;;;;;;2602942;54;20026;31
2022/12/14 09:04:43;;;;;;;;;;;-6.20;99.90;;;;;;2603084;54;20933;31
2022/12/14 09:07:18;;;;;;;112.22;52.00;;;-6.30;99.90;;;;;;2603017;54;19934;31
2022/12/14 09:09:54;;;;;;;106.50;51.60;;;-6.20;99.90;;;;;;2602949;54;20943;31
2022/12/14 09:12:31;;;;;;;118.37;54.50;;;-6.30;99.90;;;;;;2602945;54;20030;31
2022/12/14 09:15:09;;;;;;;113.17;51.57;;;-6.20;99.90;;;;;;2602168;54;20060;31
2022/12/14 09:17:45;;;;;;;;;;;-6.20;99.90;;;;;;2602240;54;20962;31
2022/12/14 09:20:22;;;;;;;107.25;49.78;;;-6.20;99.90;;;;;;2602293;54;19948;31
2022/12/14 09:22:59;;;;;;;122.43;51.90;;;-6.10;99.90;;;;;;2603037;54;20029;31
2022/12/14 09:25:35;;;;;;;115.22;53.28;;;-5.90;99.90;;;;;;2602983;54;20797;31
2022/12/14 09:28:10;;;;;;;127.22;56.63;;;-5.90;99.90;;;;;;2701530;39;20396;31
2022/12/14 09:30:45;;;;;;;115.53;54.33;;;-5.90;99.90;;;;;;2602708;54;20097;31
2022/12/14 09:33:20;;;;;;;134.93;61.22;;;-5.80;99.90;;;;;;2603535;54;20026;31
2022/12/14 09:36:01;;;;;;;120.78;56.10;;;-5.60;99.90;;;;;;2603556;54;20984;31
2022/12/14 09:38:38;;;;;;;130.00;60.80;;;-5.50;99.90;;;;;;2603720;54;21021;31
2022/12/14 09:41:33;;;;;;;136.25;64.30;;;-5.40;99.90;;;;;;2603883;54;20045;31
2022/12/14 09:44:12;;;;;;;;;;;-5.40;99.90;;;;;;2603589;54;21360;31
2022/12/14 09:46:57;;;;;;;121.40;56.22;;;-5.50;99.90;;;;;;2603498;54;20799;31
2022/12/14 09:49:33;;;;;;;119.60;55.97;;;-5.50;99.90;;;;;;2603569;54;20096;31
2022/12/14 09:52:14;;;;;;;117.93;54.87;;;-5.50;99.90;;;;;;2602807;54;20951;31
2022/12/14 09:54:49;;;;;;;111.90;54.22;;;-5.40;99.90;;;;;;2603661;54;20044;31
2022/12/14 09:57:26;;;;;;;111.13;50.75;;;-5.20;99.90;;;;;;2603808;54;20089;31
2022/12/14 10:00:01;;;;;;;116.10;55.10;;;-5.00;99.90;;;;;;2603493;54;20026;31
2022/12/14 10:02:52;;;;;;;113.18;51.90;;;-4.80;99.90;;;;;;2603458;54;20026;31
2022/12/14 10:05:37;;;;;;;113.28;52.70;;;-4.60;99.90;;;;;;2603680;54;20032;31
2022/12/14 10:08:18;;;;;;;114.50;54.78;;;-4.60;99.90;;;;;;2603565;54;20911;31
2022/12/14 10:10:58;;;;;;;117.03;54.70;;;-4.60;99.90;;;;;;2603465;54;20907;31
2022/12/14 10:13:39;;;;;;;116.07;54.67;;;-4.50;99.90;;;;;;2603600;54;20982;31
2022/12/14 10:16:20;;;;;;;114.57;53.72;;;-4.40;99.90;;;;;;2603695;54;21219;31
2022/12/14 10:19:04;;;;;;;122.95;55.72;;;-4.30;99.90;;;;;;2603633;54;20113;31
2022/12/14 10:21:46;;;;;;;110.65;52.95;;;-4.20;99.90;;;;;;2603467;54;20860;31
2022/12/14 10:24:27;;;;;;;111.82;56.13;;;-4.10;99.90;;;;;;2603547;54;20986;31
2022/12/14 10:27:02;;;;;;;111.57;52.83;;;-4.00;99.90;;;;;;2603397;54;20029;31
2022/12/14 10:29:38;;;;;;;110.63;53.90;;;-4.00;99.90;;;;;;2603524;54;20034;31
2022/12/14 10:32:21;;;;;;;110.43;55.22;;;-3.90;99.90;;;;;;2609792;39;22398;31
2022/12/14 10:34:59;;;;;;;108.97;53.78;;;-3.80;99.90;;;;;;2603560;54;20033;31
2022/12/14 10:37:34;;;;;;;114.45;56.70;;;-3.70;99.90;;;;;;2609822;39;22389;31
2022/12/14 10:40:19;;;;;;;116.80;54.45;;;-3.60;99.90;;;;;;2603527;54;20022;31
2022/12/14 10:43:36;;;;;;;109.05;55.30;;;-3.60;99.90;;;;;;2702106;39;21445;31
2022/12/14 10:46:16;;;;;;;117.93;55.65;;;-3.50;99.90;;;;;;2603529;54;20037;31
2022/12/14 10:48:56;;;;;;;113.30;54.83;;;-3.50;99.90;;;;;;2603488;54;20023;31
2022/12/14 10:51:33;;;;;;;105.35;53.72;;;-3.40;99.90;;;;;;2609924;39;21165;31
2022/12/14 10:54:12;;;;;;;109.88;55.25;;;-3.30;99.90;;;;;;2603652;54;20128;31
2022/12/14 10:56:50;;;;;;;110.47;53.80;;;-3.30;99.90;;;;;;2603599;54;20828;31
2022/12/14 10:59:28;;;;;;;108.35;54.05;;;-3.30;99.90;;;;;;2603580;54;20804;31
2022/12/14 11:02:15;;;;;;;;;;;-3.30;99.90;;;;;;2603961;54;20910;31
2022/12/14 11:04:52;;;;;;;108.50;54.03;;;-3.40;99.90;;;;;;2603520;54;20782;31
2022/12/14 11:07:28;;;;;;;102.15;48.00;;;-3.40;99.90;;;;;;2603503;54;19934;31
2022/12/14 11:10:15;;;;;;;105.43;51.45;;;-3.50;99.90;;;;;;2603261;54;20804;31
2022/12/14 11:13:17;;;;;;;106.38;52.20;;;-3.60;99.90;;;;;;2603350;54;20027;31
2022/12/14 11:15:53;;;;;;;103.13;50.30;;;-3.60;99.90;;;;;;2603465;54;20050;31
2022/12/14 11:18:31;;;;;;;104.65;50.33;;;-3.60;99.90;;;;;;2602614;54;20883;31
2022/12/14 11:21:08;;;;;;;103.53;48.78;;;-3.60;99.90;;;;;;2603270;54;20782;31
2022/12/14 11:23:44;;;;;;;100.35;46.90;;;-3.60;99.90;;;;;;2609746;39;22409;31
2022/12/14 11:26:24;;;;;;;;;;;-3.60;99.90;;;;;;2603117;54;20113;31
2022/12/14 11:29:03;;;;;;;103.18;48.55;;;-3.60;99.90;;;;;;2603545;54;19942;31
2022/12/14 11:31:40;;;;;;;111.13;53.97;;;-3.70;99.90;;;;;;2603280;54;20916;31
2022/12/14 11:34:26;;;;;;;97.97;47.95;;;-3.70;99.90;;;;;;2603510;54;20239;31
2022/12/14 11:37:12;;;;;;;94.38;44.75;;;-3.70;99.90;;;;;;2609431;39;22534;31
2022/12/14 11:39:48;;;;;;;95.90;45.42;;;-3.70;99.90;;;;;;2603233;54;20879;31
2022/12/14 11:42:23;;;;;;;97.28;48.83;;;-3.70;99.90;;;;;;2603302;54;19935;31
2022/12/14 11:45:21;;;;;;;99.73;46.90;;;-3.70;99.90;;;;;;2603137;54;20053;31
2022/12/14 11:48:16;;;;;;;91.60;42.65;;;-3.60;99.90;;;;;;2603245;54;20266;31
2022/12/14 11:50:51;;;;;;;88.65;44.33;;;-3.60;99.90;;;;;;2603196;54;20956;31
2022/12/14 11:53:26;;;;;;;99.03;43.27;;;-3.60;99.90;;;;;;2603591;54;19945;31
2022/12/14 11:56:01;;;;;;;88.40;44.70;;;-3.60;99.90;;;;;;2602404;54;20068;31
2022/12/14 11:58:38;;;;;;;88.10;44.67;;;-3.50;99.90;;;;;;2603397;54;20987;31
2022/12/14 12:01:17;;;;;;;85.15;41.55;;;-3.50;99.90;;;;;;2603309;54;20086;31
2022/12/14 12:03:52;;;;;;;84.05;41.20;;;-3.50;99.90;;;;;;2621390;46;20059;31
2022/12/14 12:06:27;;;;;;;85.73;43.07;;;-3.50;99.90;;;;;;2603331;54;20811;31
2022/12/14 12:09:04;;;;;;;90.50;44.05;;;-3.40;99.90;;;;;;2621648;46;20022;31
2022/12/14 12:11:39;;;;;;;89.00;43.97;;;-3.40;99.90;;;;;;2602698;54;20300;31
2022/12/14 12:14:23;;;;;;;85.30;43.00;;;-3.40;99.90;;;;;;2621801;46;20027;31
2022/12/14 12:17:04;;;;;;;94.88;45.92;;;-3.40;99.90;;;;;;2603119;54;20114;31
2022/12/14 12:19:41;;;;;;;90.97;41.63;;;-3.30;99.90;;;;;;2603240;54;20058;31
2022/12/14 12:22:19;;;;;;;85.68;43.03;;;-3.30;99.90;;;;;;2603351;54;20763;31
2022/12/14 12:24:55;;;;;;;83.00;41.55;;;-3.20;99.90;;;;;;2603280;54;20109;31
2022/12/14 12:27:53;;;;;;;85.95;41.75;;;-3.20;99.90;;;;;;2609366;39;21126;31
2022/12/14 12:30:31;;;;;;;89.15;41.50;;;-3.10;99.90;;;;;;2603131;54;20030;31
2022/12/14 12:33:17;;;;;;;82.18;40.75;;;-3.00;99.90;;;;;;2602932;54;20881;31
2022/12/14 12:35:52;;;;;;;83.82;41.92;;;-3.00;99.90;;;;;;2603260;54;20958;31
2022/12/14 12:38:45;;;;;;;81.33;39.70;;;-2.90;99.90;;;;;;2603058;54;20152;31
2022/12/14 12:41:27;;;;;;;80.93;41.03;;;-2.90;99.90;;;;;;2603268;54;20032;31
2022/12/14 12:44:08;;;;;;;72.53;36.30;;;-2.80;99.90;;;;;;2603291;54;20023;31
2022/12/14 12:46:56;;;;;;;73.35;37.40;;;-2.80;99.90;;;;;;2603180;54;20057;31
2022/12/14 12:49:54;;;;;;;66.68;34.25;;;-2.70;99.90;;;;;;2603178;54;20893;31
2022/12/14 12:52:32;;;;;;;69.70;33.58;;;-2.70;99.90;;;;;;2603043;54;20049;31
2022/12/14 12:55:11;;;;;;;70.65;35.90;;;-2.70;99.90;;;;;;2621443;46;20031;31
2022/12/14 12:57:51;;;;;;;68.20;33.97;;;-2.70;99.90;;;;;;2603273;54;20105;31
2022/12/14 13:00:27;;;;;;;64.60;31.23;;;-2.50;99.90;;;;;;2603169;54;20027;31
2022/12/14 13:03:03;;;;;;;63.70;31.27;;;-2.50;99.90;;;;;;2603216;54;20812;31
2022/12/14 13:05:42;;;;;;;62.25;30.95;;;-2.50;99.90;;;;;;2603027;54;20030;31
2022/12/14 13:08:24;;;;;;;66.60;30.63;;;-2.50;99.90;;;;;;2602931;54;20887;31
2022/12/14 13:11:01;;;;;;;61.03;31.65;;;-2.50;99.90;;;;;;2603097;54;20261;31
2022/12/14 13:13:58;;;;;;;57.20;29.70;;;-2.50;99.90;;;;;;2603038;54;20029;31
2022/12/14 13:16:33;;;;;;;;;;;-2.50;99.90;;;;;;2701261;39;21644;31
2022/12/14 13:19:14;;;;;;;52.40;26.90;;;-2.50;99.90;;;;;;2602916;54;20811;31
2022/12/14 13:22:12;;;;;;;56.40;28.27;;;-2.50;99.90;;;;;;2602742;54;20375;31
2022/12/14 13:24:47;;;;;;;60.45;27.50;;;-2.50;99.90;;;;;;2609626;39;21071;31
2022/12/14 13:27:49;;;;;;;62.80;29.30;;;-2.50;99.90;;;;;;2602924;54;20050;31
2022/12/14 13:30:26;;;;;;;55.88;26.73;;;-2.50;99.90;;;;;;2602790;54;21573;31
2022/12/14 13:33:41;;;;;;;56.42;27.55;;;-2.50;99.90;;;;;;2603130;54;20774;31
2022/12/14 13:36:32;;;;;;;55.35;28.65;;;-2.50;99.90;;;;;;2602636;54;20022;31
2022/12/14 13:39:30;;;;;;;52.67;28.42;;;-2.50;99.90;;;;;;2602820;54;20093;31
2022/12/14 13:42:07;;;;;;;58.47;27.60;;;-2.60;99.90;;;;;;2603048;54;20042;31
2022/12/14 13:44:49;;;;;;;54.40;28.30;;;-2.60;99.90;;;;;;2603037;54;20018;31
2022/12/14 13:47:25;;;;;;;56.35;27.73;;;-2.50;99.90;;;;;;2603001;54;20872;31